sensor_id;sensor_type;location;lat;lon;timestamp;P1;durP1;ratioP1;P2;durP2;ratioP2
46931;SDS011;32670;51.464;11.964;2024-03-07T00:01:59;1.90;;;1.80;;
46931;SDS011;32670;51.464;11.964;2024-03-07T00:04:25;1.77;;;1.67;;
46931;SDS011;32670;51.464;11.964;2024-03-07T00:06:50;1.93;;;1.80;;
46931;SDS011;32670;51.464;11.964;2024-03-07T00:09:15;1.70;;;1.60;;
46931;SDS011;32670;51.464;11.964;2024-03-07T00:11:41;1.60;;;1.50;;
46931;SDS011;32670;51.464;11.964;2024-03-07T00:14:06;1.80;;;1.70;;
46931;SDS011;32670;51.464;11.964;2024-03-07T00:16:32;2.23;;;1.60;;
46931;SDS011;32670;51.464;11.964;2024-03-07T00:18:58;3.63;;;1.60;;
46931;SDS011;32670;51.464;11.964;2024-03-07T00:21:25;1.73;;;1.63;;
46931;SDS011;32670;51.464;11.964;2024-03-07T00:23:51;2.60;;;1.60;;
46931;SDS011;32670;51.464;11.964;2024-03-07T00:26:16;1.83;;;1.50;;
46931;SDS011;32670;51.464;11.964;2024-03-07T00:28:42;1.50;;;1.40;;
46931;SDS011;32670;51.464;11.964;2024-03-07T00:31:07;2.97;;;1.90;;
46931;SDS011;32670;51.464;11.964;2024-03-07T00:33:34;2.93;;;1.57;;
46931;SDS011;32670;51.464;11.964;2024-03-07T00:35:59;1.80;;;1.70;;
46931;SDS011;32670;51.464;11.964;2024-03-07T00:38:25;1.77;;;1.67;;
46931;SDS011;32670;51.464;11.964;2024-03-07T00:40:51;1.50;;;1.40;;
46931;SDS011;32670;51.464;11.964;2024-03-07T00:43:16;3.57;;;1.60;;
46931;SDS011;32670;51.464;11.964;2024-03-07T00:45:42;1.63;;;1.53;;
46931;SDS011;32670;51.464;11.964;2024-03-07T00:48:07;1.60;;;1.50;;
46931;SDS011;32670;51.464;11.964;2024-03-07T00:50:33;1.73;;;1.63;;
46931;SDS011;32670;51.464;11.964;2024-03-07T00:52:58;1.40;;;1.30;;
46931;SDS011;32670;51.464;11.964;2024-03-07T00:55:24;1.60;;;1.50;;
46931;SDS011;32670;51.464;11.964;2024-03-07T00:57:50;1.53;;;1.43;;
46931;SDS011;32670;51.464;11.964;2024-03-07T01:00:15;1.50;;;1.40;;
46931;SDS011;32670;51.464;11.964;2024-03-07T01:02:45;1.73;;;1.57;;
46931;SDS011;32670;51.464;11.964;2024-03-07T01:05:11;1.87;;;1.60;;
46931;SDS011;32670;51.464;11.964;2024-03-07T01:07:40;2.03;;;1.40;;
46931;SDS011;32670;51.464;11.964;2024-03-07T01:10:06;1.53;;;1.43;;
46931;SDS011;32670;51.464;11.964;2024-03-07T01:12:33;1.57;;;1.47;;
46931;SDS011;32670;51.464;11.964;2024-03-07T01:14:59;2.80;;;1.50;;
46931;SDS011;32670;51.464;11.964;2024-03-07T01:17:25;1.70;;;1.60;;
46931;SDS011;32670;51.464;11.964;2024-03-07T01:19:51;1.60;;;1.47;;
46931;SDS011;32670;51.464;11.964;2024-03-07T01:22:17;3.27;;;1.40;;
46931;SDS011;32670;51.464;11.964;2024-03-07T01:24:42;1.80;;;1.30;;
46931;SDS011;32670;51.464;11.964;2024-03-07T01:27:08;1.50;;;1.40;;
46931;SDS011;32670;51.464;11.964;2024-03-07T01:29:34;1.50;;;1.40;;
46931;SDS011;32670;51.464;11.964;2024-03-07T01:31:59;1.40;;;1.30;;
46931;SDS011;32670;51.464;11.964;2024-03-07T01:34:25;1.60;;;1.50;;
46931;SDS011;32670;51.464;11.964;2024-03-07T01:36:51;3.33;;;1.40;;
46931;SDS011;32670;51.464;11.964;2024-03-07T01:39:16;1.63;;;1.53;;
46931;SDS011;32670;51.464;11.964;2024-03-07T01:41:42;1.60;;;1.50;;
46931;SDS011;32670;51.464;11.964;2024-03-07T01:44:09;1.43;;;1.33;;
46931;SDS011;32670;51.464;11.964;2024-03-07T01:46:34;1.93;;;1.60;;
46931;SDS011;32670;51.464;11.964;2024-03-07T01:49:00;1.43;;;1.33;;
46931;SDS011;32670;51.464;11.964;2024-03-07T01:51:26;2.03;;;1.40;;
46931;SDS011;32670;51.464;11.964;2024-03-07T01:53:52;1.63;;;1.50;;
46931;SDS011;32670;51.464;11.964;2024-03-07T01:56:18;1.53;;;1.40;;
46931;SDS011;32670;51.464;11.964;2024-03-07T01:58:46;1.70;;;1.60;;
46931;SDS011;32670;51.464;11.964;2024-03-07T02:01:13;2.40;;;1.60;;
46931;SDS011;32670;51.464;11.964;2024-03-07T02:03:40;2.60;;;1.80;;
46931;SDS011;32670;51.464;11.964;2024-03-07T02:06:07;1.67;;;1.50;;
46931;SDS011;32670;51.464;11.964;2024-03-07T02:08:32;1.60;;;1.50;;
46931;SDS011;32670;51.464;11.964;2024-03-07T02:10:59;1.50;;;1.40;;
46931;SDS011;32670;51.464;11.964;2024-03-07T02:13:25;1.53;;;1.43;;
46931;SDS011;32670;51.464;11.964;2024-03-07T02:15:51;1.67;;;1.50;;
46931;SDS011;32670;51.464;11.964;2024-03-07T02:18:17;1.90;;;1.70;;
46931;SDS011;32670;51.464;11.964;2024-03-07T02:20:45;2.80;;;1.60;;
46931;SDS011;32670;51.464;11.964;2024-03-07T02:23:13;1.67;;;1.33;;
46931;SDS011;32670;51.464;11.964;2024-03-07T02:25:39;1.53;;;1.37;;
46931;SDS011;32670;51.464;11.964;2024-03-07T02:28:05;1.60;;;1.50;;
46931;SDS011;32670;51.464;11.964;2024-03-07T02:30:31;1.60;;;1.50;;
46931;SDS011;32670;51.464;11.964;2024-03-07T02:32:57;1.50;;;1.40;;
46931;SDS011;32670;51.464;11.964;2024-03-07T02:35:34;1.50;;;1.40;;
46931;SDS011;32670;51.464;11.964;2024-03-07T02:38:01;1.60;;;1.50;;
46931;SDS011;32670;51.464;11.964;2024-03-07T02:40:33;1.30;;;1.30;;
46931;SDS011;32670;51.464;11.964;2024-03-07T02:42:59;2.03;;;1.40;;
46931;SDS011;32670;51.464;11.964;2024-03-07T02:45:24;1.43;;;1.33;;
46931;SDS011;32670;51.464;11.964;2024-03-07T02:47:50;1.50;;;1.40;;
46931;SDS011;32670;51.464;11.964;2024-03-07T02:50:16;1.50;;;1.40;;
46931;SDS011;32670;51.464;11.964;2024-03-07T02:52:42;1.77;;;1.47;;
46931;SDS011;32670;51.464;11.964;2024-03-07T02:55:07;1.57;;;1.47;;
46931;SDS011;32670;51.464;11.964;2024-03-07T02:57:35;1.50;;;1.40;;
46931;SDS011;32670;51.464;11.964;2024-03-07T03:00:01;7.70;;;1.80;;
46931;SDS011;32670;51.464;11.964;2024-03-07T03:02:28;5.57;;;1.57;;
46931;SDS011;32670;51.464;11.964;2024-03-07T03:04:53;4.00;;;1.53;;
46931;SDS011;32670;51.464;11.964;2024-03-07T03:07:19;5.43;;;1.50;;
46931;SDS011;32670;51.464;11.964;2024-03-07T03:09:45;20.67;;;2.13;;
46931;SDS011;32670;51.464;11.964;2024-03-07T03:12:11;2.07;;;1.40;;
46931;SDS011;32670;51.464;11.964;2024-03-07T03:14:36;1.93;;;1.60;;
46931;SDS011;32670;51.464;11.964;2024-03-07T03:17:02;3.20;;;1.60;;
46931;SDS011;32670;51.464;11.964;2024-03-07T03:19:28;2.53;;;1.53;;
46931;SDS011;32670;51.464;11.964;2024-03-07T03:21:54;4.47;;;1.43;;
46931;SDS011;32670;51.464;11.964;2024-03-07T03:24:20;3.43;;;1.70;;
46931;SDS011;32670;51.464;11.964;2024-03-07T03:26:46;3.37;;;1.77;;
46931;SDS011;32670;51.464;11.964;2024-03-07T03:29:12;2.17;;;1.67;;
46931;SDS011;32670;51.464;11.964;2024-03-07T03:31:38;3.97;;;1.73;;
46931;SDS011;32670;51.464;11.964;2024-03-07T03:34:04;3.20;;;1.60;;
46931;SDS011;32670;51.464;11.964;2024-03-07T03:36:30;2.53;;;1.60;;
46931;SDS011;32670;51.464;11.964;2024-03-07T03:38:55;2.03;;;1.50;;
46931;SDS011;32670;51.464;11.964;2024-03-07T03:41:21;1.97;;;1.43;;
46931;SDS011;32670;51.464;11.964;2024-03-07T03:43:47;1.73;;;1.40;;
46931;SDS011;32670;51.464;11.964;2024-03-07T03:46:13;5.20;;;1.80;;
46931;SDS011;32670;51.464;11.964;2024-03-07T03:48:39;3.60;;;1.60;;
46931;SDS011;32670;51.464;11.964;2024-03-07T03:51:07;4.70;;;1.40;;
46931;SDS011;32670;51.464;11.964;2024-03-07T03:53:33;8.03;;;1.40;;
46931;SDS011;32670;51.464;11.964;2024-03-07T03:55:59;1.93;;;1.60;;
46931;SDS011;32670;51.464;11.964;2024-03-07T03:58:25;1.37;;;1.27;;
46931;SDS011;32670;51.464;11.964;2024-03-07T04:00:50;2.33;;;1.60;;
46931;SDS011;32670;51.464;11.964;2024-03-07T04:03:16;2.10;;;1.63;;
46931;SDS011;32670;51.464;11.964;2024-03-07T04:05:42;3.07;;;1.60;;
46931;SDS011;32670;51.464;11.964;2024-03-07T04:08:07;1.50;;;1.40;;
46931;SDS011;32670;51.464;11.964;2024-03-07T04:10:34;3.07;;;1.47;;
46931;SDS011;32670;51.464;11.964;2024-03-07T04:13:00;2.43;;;1.30;;
46931;SDS011;32670;51.464;11.964;2024-03-07T04:15:25;1.53;;;1.43;;
46931;SDS011;32670;51.464;11.964;2024-03-07T04:17:52;1.63;;;1.40;;
46931;SDS011;32670;51.464;11.964;2024-03-07T04:20:18;3.37;;;1.70;;
46931;SDS011;32670;51.464;11.964;2024-03-07T04:22:43;3.90;;;1.50;;
46931;SDS011;32670;51.464;11.964;2024-03-07T04:25:09;1.63;;;1.50;;
46931;SDS011;32670;51.464;11.964;2024-03-07T04:27:35;1.70;;;1.50;;
46931;SDS011;32670;51.464;11.964;2024-03-07T04:30:05;3.63;;;1.50;;
46931;SDS011;32670;51.464;11.964;2024-03-07T04:32:32;1.40;;;1.30;;
46931;SDS011;32670;51.464;11.964;2024-03-07T04:34:59;3.83;;;1.50;;
46931;SDS011;32670;51.464;11.964;2024-03-07T04:37:25;1.80;;;1.30;;
46931;SDS011;32670;51.464;11.964;2024-03-07T04:39:52;4.70;;;1.50;;
46931;SDS011;32670;51.464;11.964;2024-03-07T04:42:18;3.23;;;1.70;;
46931;SDS011;32670;51.464;11.964;2024-03-07T04:44:43;2.03;;;1.50;;
46931;SDS011;32670;51.464;11.964;2024-03-07T04:47:09;1.53;;;1.30;;
46931;SDS011;32670;51.464;11.964;2024-03-07T04:49:34;1.63;;;1.30;;
46931;SDS011;32670;51.464;11.964;2024-03-07T04:52:01;2.63;;;1.57;;
46931;SDS011;32670;51.464;11.964;2024-03-07T04:54:28;5.20;;;1.50;;
46931;SDS011;32670;51.464;11.964;2024-03-07T04:56:54;2.20;;;1.60;;
46931;SDS011;32670;51.464;11.964;2024-03-07T04:59:20;1.83;;;1.40;;
46931;SDS011;32670;51.464;11.964;2024-03-07T05:01:47;2.37;;;1.43;;
46931;SDS011;32670;51.464;11.964;2024-03-07T05:04:14;1.63;;;1.50;;
46931;SDS011;32670;51.464;11.964;2024-03-07T05:06:41;1.50;;;1.40;;
46931;SDS011;32670;51.464;11.964;2024-03-07T05:09:08;1.37;;;1.20;;
46931;SDS011;32670;51.464;11.964;2024-03-07T05:11:35;1.57;;;1.47;;
46931;SDS011;32670;51.464;11.964;2024-03-07T05:14:01;1.67;;;1.40;;
46931;SDS011;32670;51.464;11.964;2024-03-07T05:16:27;3.30;;;1.60;;
46931;SDS011;32670;51.464;11.964;2024-03-07T05:18:54;1.50;;;1.40;;
46931;SDS011;32670;51.464;11.964;2024-03-07T05:21:23;1.40;;;1.30;;
46931;SDS011;32670;51.464;11.964;2024-03-07T05:23:57;1.37;;;1.27;;
46931;SDS011;32670;51.464;11.964;2024-03-07T05:26:24;1.70;;;1.40;;
46931;SDS011;32670;51.464;11.964;2024-03-07T05:28:49;2.70;;;1.40;;
46931;SDS011;32670;51.464;11.964;2024-03-07T05:31:16;1.83;;;1.43;;
46931;SDS011;32670;51.464;11.964;2024-03-07T05:33:43;2.53;;;1.27;;
46931;SDS011;32670;51.464;11.964;2024-03-07T05:36:09;1.50;;;1.40;;
46931;SDS011;32670;51.464;11.964;2024-03-07T05:38:43;1.50;;;1.40;;
46931;SDS011;32670;51.464;11.964;2024-03-07T05:41:10;2.60;;;1.73;;
46931;SDS011;32670;51.464;11.964;2024-03-07T05:43:37;3.30;;;1.30;;
46931;SDS011;32670;51.464;11.964;2024-03-07T05:46:03;2.40;;;1.20;;
46931;SDS011;32670;51.464;11.964;2024-03-07T05:48:30;1.50;;;1.40;;
46931;SDS011;32670;51.464;11.964;2024-03-07T05:50:56;1.70;;;1.53;;
46931;SDS011;32670;51.464;11.964;2024-03-07T05:53:22;5.77;;;1.47;;
46931;SDS011;32670;51.464;11.964;2024-03-07T05:55:47;2.70;;;1.70;;
46931;SDS011;32670;51.464;11.964;2024-03-07T05:58:13;1.80;;;1.50;;
46931;SDS011;32670;51.464;11.964;2024-03-07T06:00:38;1.40;;;1.30;;
46931;SDS011;32670;51.464;11.964;2024-03-07T06:03:05;1.40;;;1.30;;
46931;SDS011;32670;51.464;11.964;2024-03-07T06:05:30;1.63;;;1.37;;
46931;SDS011;32670;51.464;11.964;2024-03-07T06:07:56;1.37;;;1.27;;
46931;SDS011;32670;51.464;11.964;2024-03-07T06:10:22;3.10;;;1.43;;
46931;SDS011;32670;51.464;11.964;2024-03-07T06:12:50;2.07;;;1.50;;
46931;SDS011;32670;51.464;11.964;2024-03-07T06:15:19;1.40;;;1.30;;
46931;SDS011;32670;51.464;11.964;2024-03-07T06:17:45;3.23;;;1.27;;
46931;SDS011;32670;51.464;11.964;2024-03-07T06:20:12;2.20;;;1.50;;
46931;SDS011;32670;51.464;11.964;2024-03-07T06:22:47;4.03;;;1.50;;
46931;SDS011;32670;51.464;11.964;2024-03-07T06:25:15;1.93;;;1.40;;
46931;SDS011;32670;51.464;11.964;2024-03-07T06:27:45;1.60;;;1.33;;
46931;SDS011;32670;51.464;11.964;2024-03-07T06:30:17;4.00;;;1.50;;
46931;SDS011;32670;51.464;11.964;2024-03-07T06:32:43;2.90;;;1.60;;
46931;SDS011;32670;51.464;11.964;2024-03-07T06:35:08;8.13;;;1.73;;
46931;SDS011;32670;51.464;11.964;2024-03-07T06:37:35;15.50;;;13.77;;
46931;SDS011;32670;51.464;11.964;2024-03-07T06:40:00;22.40;;;15.83;;
46931;SDS011;32670;51.464;11.964;2024-03-07T06:42:30;20.23;;;18.03;;
46931;SDS011;32670;51.464;11.964;2024-03-07T06:44:57;20.27;;;18.13;;
46931;SDS011;32670;51.464;11.964;2024-03-07T06:47:23;26.07;;;19.67;;
46931;SDS011;32670;51.464;11.964;2024-03-07T06:49:49;21.73;;;19.53;;
46931;SDS011;32670;51.464;11.964;2024-03-07T06:52:17;23.27;;;19.67;;
46931;SDS011;32670;51.464;11.964;2024-03-07T06:54:43;21.50;;;19.30;;
46931;SDS011;32670;51.464;11.964;2024-03-07T06:57:08;22.73;;;19.70;;
46931;SDS011;32670;51.464;11.964;2024-03-07T06:59:34;21.87;;;19.57;;
46931;SDS011;32670;51.464;11.964;2024-03-07T07:02:01;24.10;;;19.83;;
46931;SDS011;32670;51.464;11.964;2024-03-07T07:04:28;22.17;;;19.27;;
46931;SDS011;32670;51.464;11.964;2024-03-07T07:07:06;22.33;;;19.80;;
46931;SDS011;32670;51.464;11.964;2024-03-07T07:09:33;22.30;;;18.53;;
46931;SDS011;32670;51.464;11.964;2024-03-07T07:12:00;21.20;;;19.10;;
46931;SDS011;32670;51.464;11.964;2024-03-07T07:14:28;23.60;;;20.27;;
46931;SDS011;32670;51.464;11.964;2024-03-07T07:16:53;21.17;;;18.93;;
46931;SDS011;32670;51.464;11.964;2024-03-07T07:19:20;20.50;;;18.50;;
46931;SDS011;32670;51.464;11.964;2024-03-07T07:21:46;24.30;;;19.07;;
46931;SDS011;32670;51.464;11.964;2024-03-07T07:24:14;22.03;;;19.83;;
46931;SDS011;32670;51.464;11.964;2024-03-07T07:26:40;22.93;;;18.83;;
46931;SDS011;32670;51.464;11.964;2024-03-07T07:29:05;21.50;;;18.97;;
46931;SDS011;32670;51.464;11.964;2024-03-07T07:31:31;26.20;;;16.60;;
46931;SDS011;32670;51.464;11.964;2024-03-07T07:33:57;27.40;;;16.93;;
46931;SDS011;32670;51.464;11.964;2024-03-07T07:36:23;24.23;;;16.53;;
46931;SDS011;32670;51.464;11.964;2024-03-07T07:38:48;25.67;;;15.47;;
46931;SDS011;32670;51.464;11.964;2024-03-07T07:41:14;18.93;;;14.87;;
46931;SDS011;32670;51.464;11.964;2024-03-07T07:43:40;17.50;;;15.10;;
46931;SDS011;32670;51.464;11.964;2024-03-07T07:46:06;19.83;;;14.53;;
46931;SDS011;32670;51.464;11.964;2024-03-07T07:48:31;16.53;;;13.67;;
46931;SDS011;32670;51.464;11.964;2024-03-07T07:50:57;16.77;;;13.47;;
46931;SDS011;32670;51.464;11.964;2024-03-07T07:53:23;18.27;;;13.20;;
46931;SDS011;32670;51.464;11.964;2024-03-07T07:55:48;14.07;;;12.40;;
46931;SDS011;32670;51.464;11.964;2024-03-07T07:58:14;14.27;;;12.10;;
46931;SDS011;32670;51.464;11.964;2024-03-07T08:00:39;13.97;;;11.37;;
46931;SDS011;32670;51.464;11.964;2024-03-07T08:03:08;13.87;;;11.33;;
46931;SDS011;32670;51.464;11.964;2024-03-07T08:05:34;14.13;;;11.03;;
46931;SDS011;32670;51.464;11.964;2024-03-07T08:08:04;15.70;;;11.13;;
46931;SDS011;32670;51.464;11.964;2024-03-07T08:10:32;14.13;;;10.77;;
46931;SDS011;32670;51.464;11.964;2024-03-07T08:13:00;12.03;;;10.73;;
46931;SDS011;32670;51.464;11.964;2024-03-07T08:15:27;12.70;;;10.33;;
46931;SDS011;32670;51.464;11.964;2024-03-07T08:17:53;10.73;;;9.57;;
46931;SDS011;32670;51.464;11.964;2024-03-07T08:20:22;11.87;;;9.87;;
46931;SDS011;32670;51.464;11.964;2024-03-07T08:22:50;9.97;;;9.03;;
46931;SDS011;32670;51.464;11.964;2024-03-07T08:25:17;10.30;;;9.13;;
46931;SDS011;32670;51.464;11.964;2024-03-07T08:27:48;11.27;;;9.00;;
46931;SDS011;32670;51.464;11.964;2024-03-07T08:30:15;10.87;;;8.60;;
46931;SDS011;32670;51.464;11.964;2024-03-07T08:32:44;12.23;;;9.20;;
46931;SDS011;32670;51.464;11.964;2024-03-07T08:35:17;11.17;;;8.37;;
46931;SDS011;32670;51.464;11.964;2024-03-07T08:37:43;11.07;;;8.50;;
46931;SDS011;32670;51.464;11.964;2024-03-07T08:40:10;10.43;;;8.80;;
46931;SDS011;32670;51.464;11.964;2024-03-07T08:42:43;10.20;;;8.47;;
46931;SDS011;32670;51.464;11.964;2024-03-07T08:45:10;9.53;;;7.93;;
46931;SDS011;32670;51.464;11.964;2024-03-07T08:47:36;8.80;;;7.90;;
46931;SDS011;32670;51.464;11.964;2024-03-07T08:50:03;9.33;;;7.70;;
46931;SDS011;32670;51.464;11.964;2024-03-07T08:52:33;9.73;;;8.20;;
46931;SDS011;32670;51.464;11.964;2024-03-07T08:55:04;8.20;;;7.20;;
46931;SDS011;32670;51.464;11.964;2024-03-07T08:57:30;8.00;;;7.20;;
46931;SDS011;32670;51.464;11.964;2024-03-07T08:59:56;8.67;;;6.97;;
46931;SDS011;32670;51.464;11.964;2024-03-07T09:02:22;8.63;;;7.20;;
46931;SDS011;32670;51.464;11.964;2024-03-07T09:04:49;9.47;;;7.23;;
46931;SDS011;32670;51.464;11.964;2024-03-07T09:07:15;8.60;;;6.93;;
46931;SDS011;32670;51.464;11.964;2024-03-07T09:09:42;9.43;;;7.20;;
46931;SDS011;32670;51.464;11.964;2024-03-07T09:12:08;8.93;;;7.10;;
46931;SDS011;32670;51.464;11.964;2024-03-07T09:14:34;8.20;;;7.13;;
46931;SDS011;32670;51.464;11.964;2024-03-07T09:17:00;7.27;;;6.57;;
46931;SDS011;32670;51.464;11.964;2024-03-07T09:19:26;9.90;;;7.00;;
46931;SDS011;32670;51.464;11.964;2024-03-07T09:21:53;7.53;;;6.70;;
46931;SDS011;32670;51.464;11.964;2024-03-07T09:24:19;8.00;;;7.20;;
46931;SDS011;32670;51.464;11.964;2024-03-07T09:26:51;7.47;;;6.30;;
46931;SDS011;32670;51.464;11.964;2024-03-07T09:29:17;8.50;;;6.10;;
46931;SDS011;32670;51.464;11.964;2024-03-07T09:31:44;7.77;;;7.00;;
46931;SDS011;32670;51.464;11.964;2024-03-07T09:34:19;7.57;;;6.80;;
46931;SDS011;32670;51.464;11.964;2024-03-07T09:36:46;7.07;;;6.37;;
46931;SDS011;32670;51.464;11.964;2024-03-07T09:39:12;8.50;;;7.13;;
46931;SDS011;32670;51.464;11.964;2024-03-07T09:41:37;9.27;;;6.43;;
46931;SDS011;32670;51.464;11.964;2024-03-07T09:44:04;8.37;;;6.90;;
46931;SDS011;32670;51.464;11.964;2024-03-07T09:46:31;9.20;;;6.83;;
46931;SDS011;32670;51.464;11.964;2024-03-07T09:48:57;7.13;;;6.20;;
46931;SDS011;32670;51.464;11.964;2024-03-07T09:51:23;7.07;;;5.97;;
46931;SDS011;32670;51.464;11.964;2024-03-07T09:53:50;6.47;;;5.80;;
46931;SDS011;32670;51.464;11.964;2024-03-07T09:56:19;7.17;;;6.40;;
46931;SDS011;32670;51.464;11.964;2024-03-07T09:58:49;10.40;;;6.47;;
46931;SDS011;32670;51.464;11.964;2024-03-07T10:01:16;7.53;;;6.53;;
46931;SDS011;32670;51.464;11.964;2024-03-07T10:03:45;6.70;;;6.00;;
46931;SDS011;32670;51.464;11.964;2024-03-07T10:06:12;7.03;;;6.33;;
46931;SDS011;32670;51.464;11.964;2024-03-07T10:08:38;7.27;;;6.40;;
46931;SDS011;32670;51.464;11.964;2024-03-07T10:11:05;6.80;;;6.10;;
46931;SDS011;32670;51.464;11.964;2024-03-07T10:13:31;8.87;;;6.43;;
46931;SDS011;32670;51.464;11.964;2024-03-07T10:15:56;6.63;;;6.00;;
46931;SDS011;32670;51.464;11.964;2024-03-07T10:18:25;9.27;;;6.03;;
46931;SDS011;32670;51.464;11.964;2024-03-07T10:20:55;7.70;;;6.00;;
46931;SDS011;32670;51.464;11.964;2024-03-07T10:23:21;7.77;;;5.93;;
46931;SDS011;32670;51.464;11.964;2024-03-07T10:25:50;6.67;;;5.97;;
46931;SDS011;32670;51.464;11.964;2024-03-07T10:28:16;6.17;;;5.67;;
46931;SDS011;32670;51.464;11.964;2024-03-07T10:30:42;6.83;;;6.17;;
46931;SDS011;32670;51.464;11.964;2024-03-07T10:33:09;7.27;;;5.70;;
46931;SDS011;32670;51.464;11.964;2024-03-07T10:35:37;6.90;;;5.63;;
46931;SDS011;32670;51.464;11.964;2024-03-07T10:38:03;7.17;;;5.67;;
46931;SDS011;32670;51.464;11.964;2024-03-07T10:40:32;5.50;;;5.00;;
46931;SDS011;32670;51.464;11.964;2024-03-07T10:43:00;5.43;;;4.93;;
46931;SDS011;32670;51.464;11.964;2024-03-07T10:45:30;6.90;;;5.23;;
46931;SDS011;32670;51.464;11.964;2024-03-07T10:47:59;4.63;;;4.20;;
46931;SDS011;32670;51.464;11.964;2024-03-07T10:50:48;5.70;;;5.00;;
46931;SDS011;32670;51.464;11.964;2024-03-07T10:53:45;5.33;;;4.83;;
46931;SDS011;32670;51.464;11.964;2024-03-07T10:59:17;5.10;;;4.70;;
46931;SDS011;32670;51.464;11.964;2024-03-07T11:01:57;5.53;;;4.90;;
46931;SDS011;32670;51.464;11.964;2024-03-07T11:04:29;5.40;;;4.90;;
46931;SDS011;32670;51.464;11.964;2024-03-07T11:06:56;5.40;;;4.43;;
46931;SDS011;32670;51.464;11.964;2024-03-07T11:09:23;5.10;;;4.60;;
46931;SDS011;32670;51.464;11.964;2024-03-07T11:11:54;4.73;;;4.33;;
46931;SDS011;32670;51.464;11.964;2024-03-07T11:14:20;5.27;;;4.77;;
46931;SDS011;32670;51.464;11.964;2024-03-07T11:16:47;5.00;;;4.50;;
46931;SDS011;32670;51.464;11.964;2024-03-07T11:21:47;4.77;;;4.37;;
46931;SDS011;32670;51.464;11.964;2024-03-07T11:24:29;6.33;;;4.27;;
46931;SDS011;32670;51.464;11.964;2024-03-07T11:27:02;4.63;;;4.23;;
46931;SDS011;32670;51.464;11.964;2024-03-07T11:32:17;4.50;;;4.10;;
46931;SDS011;32670;51.464;11.964;2024-03-07T11:34:46;4.33;;;4.00;;
46931;SDS011;32670;51.464;11.964;2024-03-07T11:40:11;4.30;;;3.90;;
46931;SDS011;32670;51.464;11.964;2024-03-07T11:42:46;4.57;;;4.17;;
46931;SDS011;32670;51.464;11.964;2024-03-07T11:45:13;4.83;;;4.33;;
46931;SDS011;32670;51.464;11.964;2024-03-07T11:47:52;4.07;;;3.70;;
46931;SDS011;32670;51.464;11.964;2024-03-07T11:50:25;4.43;;;4.03;;
46931;SDS011;32670;51.464;11.964;2024-03-07T11:52:54;4.10;;;3.70;;
46931;SDS011;32670;51.464;11.964;2024-03-07T11:55:21;4.57;;;4.17;;
46931;SDS011;32670;51.464;11.964;2024-03-07T11:57:47;3.80;;;3.50;;
46931;SDS011;32670;51.464;11.964;2024-03-07T12:00:14;4.47;;;4.03;;
46931;SDS011;32670;51.464;11.964;2024-03-07T12:02:41;3.97;;;3.67;;
46931;SDS011;32670;51.464;11.964;2024-03-07T12:05:08;4.13;;;3.83;;
46931;SDS011;32670;51.464;11.964;2024-03-07T12:07:34;4.40;;;4.00;;
46931;SDS011;32670;51.464;11.964;2024-03-07T12:10:00;3.70;;;3.40;;
46931;SDS011;32670;51.464;11.964;2024-03-07T12:12:29;3.73;;;3.43;;
46931;SDS011;32670;51.464;11.964;2024-03-07T12:14:55;3.90;;;3.60;;
46931;SDS011;32670;51.464;11.964;2024-03-07T12:17:21;4.33;;;3.93;;
46931;SDS011;32670;51.464;11.964;2024-03-07T12:19:47;4.33;;;3.93;;
46931;SDS011;32670;51.464;11.964;2024-03-07T12:22:16;4.20;;;3.80;;
46931;SDS011;32670;51.464;11.964;2024-03-07T12:24:47;4.27;;;3.87;;
46931;SDS011;32670;51.464;11.964;2024-03-07T12:27:24;4.13;;;3.60;;
46931;SDS011;32670;51.464;11.964;2024-03-07T12:29:49;3.93;;;3.53;;
46931;SDS011;32670;51.464;11.964;2024-03-07T12:32:17;3.80;;;3.50;;
46931;SDS011;32670;51.464;11.964;2024-03-07T12:34:43;4.03;;;3.63;;
46931;SDS011;32670;51.464;11.964;2024-03-07T12:37:12;4.00;;;3.70;;
46931;SDS011;32670;51.464;11.964;2024-03-07T12:39:44;3.97;;;3.67;;
46931;SDS011;32670;51.464;11.964;2024-03-07T12:42:15;4.10;;;3.70;;
46931;SDS011;32670;51.464;11.964;2024-03-07T12:44:43;3.93;;;3.63;;
46931;SDS011;32670;51.464;11.964;2024-03-07T12:47:12;3.80;;;3.50;;
46931;SDS011;32670;51.464;11.964;2024-03-07T12:49:39;3.60;;;3.30;;
46931;SDS011;32670;51.464;11.964;2024-03-07T12:52:05;3.80;;;3.50;;
46931;SDS011;32670;51.464;11.964;2024-03-07T12:54:32;3.97;;;3.57;;
46931;SDS011;32670;51.464;11.964;2024-03-07T12:56:59;3.93;;;3.57;;
46931;SDS011;32670;51.464;11.964;2024-03-07T12:59:24;3.73;;;3.43;;
46931;SDS011;32670;51.464;11.964;2024-03-07T13:01:50;3.93;;;3.53;;
46931;SDS011;32670;51.464;11.964;2024-03-07T13:04:15;3.53;;;3.30;;
46931;SDS011;32670;51.464;11.964;2024-03-07T13:06:41;3.60;;;3.30;;
46931;SDS011;32670;51.464;11.964;2024-03-07T13:09:11;3.77;;;3.47;;
46931;SDS011;32670;51.464;11.964;2024-03-07T13:11:37;3.60;;;3.30;;
46931;SDS011;32670;51.464;11.964;2024-03-07T13:14:06;4.30;;;3.90;;
46931;SDS011;32670;51.464;11.964;2024-03-07T13:16:32;3.97;;;3.63;;
46931;SDS011;32670;51.464;11.964;2024-03-07T13:18:58;3.67;;;3.33;;
46931;SDS011;32670;51.464;11.964;2024-03-07T13:21:23;4.03;;;3.70;;
46931;SDS011;32670;51.464;11.964;2024-03-07T13:23:50;3.93;;;3.60;;
46931;SDS011;32670;51.464;11.964;2024-03-07T13:26:17;11.37;;;7.10;;
46931;SDS011;32670;51.464;11.964;2024-03-07T13:28:48;7.30;;;5.30;;
46931;SDS011;32670;51.464;11.964;2024-03-07T13:31:15;4.73;;;4.33;;
46931;SDS011;32670;51.464;11.964;2024-03-07T13:33:42;6.07;;;4.50;;
46931;SDS011;32670;51.464;11.964;2024-03-07T13:36:08;6.43;;;4.90;;
46931;SDS011;32670;51.464;11.964;2024-03-07T13:38:34;8.60;;;5.80;;
46931;SDS011;32670;51.464;11.964;2024-03-07T13:41:00;7.83;;;5.20;;
46931;SDS011;32670;51.464;11.964;2024-03-07T13:43:28;6.83;;;5.07;;
46931;SDS011;32670;51.464;11.964;2024-03-07T13:46:00;8.00;;;5.07;;
46931;SDS011;32670;51.464;11.964;2024-03-07T13:48:25;18.17;;;8.53;;
46931;SDS011;32670;51.464;11.964;2024-03-07T13:50:51;10.90;;;7.03;;
46931;SDS011;32670;51.464;11.964;2024-03-07T13:53:18;9.37;;;5.90;;
46931;SDS011;32670;51.464;11.964;2024-03-07T14:01:04;10.30;;;6.40;;
46931;SDS011;32670;51.464;11.964;2024-03-07T14:03:55;7.53;;;5.70;;
46931;SDS011;32670;51.464;11.964;2024-03-07T14:07:00;9.10;;;5.73;;
46931;SDS011;32670;51.464;11.964;2024-03-07T14:09:56;8.23;;;5.80;;
46931;SDS011;32670;51.464;11.964;2024-03-07T14:18:36;7.63;;;5.30;;
46931;SDS011;32670;51.464;11.964;2024-03-07T14:24:08;9.87;;;5.13;;
46931;SDS011;32670;51.464;11.964;2024-03-07T14:33:00;9.17;;;5.73;;
46931;SDS011;32670;51.464;11.964;2024-03-07T14:38:22;7.37;;;4.90;;
46931;SDS011;32670;51.464;11.964;2024-03-07T14:41:06;7.93;;;4.90;;
46931;SDS011;32670;51.464;11.964;2024-03-07T14:43:33;6.83;;;5.00;;
46931;SDS011;32670;51.464;11.964;2024-03-07T14:45:59;7.70;;;5.37;;
46931;SDS011;32670;51.464;11.964;2024-03-07T14:48:25;8.17;;;5.30;;
46931;SDS011;32670;51.464;11.964;2024-03-07T14:50:50;7.53;;;5.27;;
46931;SDS011;32670;51.464;11.964;2024-03-07T14:53:16;7.33;;;5.07;;
46931;SDS011;32670;51.464;11.964;2024-03-07T14:55:42;7.23;;;5.10;;
46931;SDS011;32670;51.464;11.964;2024-03-07T14:58:08;6.90;;;5.10;;
46931;SDS011;32670;51.464;11.964;2024-03-07T15:00:36;6.53;;;5.20;;
46931;SDS011;32670;51.464;11.964;2024-03-07T15:03:06;7.00;;;5.30;;
46931;SDS011;32670;51.464;11.964;2024-03-07T15:05:39;6.90;;;5.00;;
46931;SDS011;32670;51.464;11.964;2024-03-07T15:08:06;6.77;;;5.17;;